createdAt,value
2018-09-10T00:01:01.078Z,2.30
2018-09-10T00:03:28.417Z,2.08
2018-09-10T00:05:55.434Z,2.02
2018-09-10T00:08:22.595Z,2.00
2018-09-10T00:10:49.614Z,2.33
2018-09-10T00:13:16.656Z,2.05
2018-09-10T00:15:43.667Z,1.60
2018-09-10T00:18:10.752Z,3.20
2018-09-10T00:20:37.927Z,1.80
2018-09-10T00:23:04.947Z,2.55
2018-09-10T00:25:32.001Z,1.45
2018-09-10T00:27:59.148Z,1.40
2018-09-10T00:30:26.214Z,1.95
2018-09-10T00:32:53.267Z,2.17
2018-09-10T00:35:20.614Z,1.45
2018-09-10T00:37:47.723Z,2.22
2018-09-10T00:40:14.755Z,1.32
2018-09-10T00:42:41.781Z,2.55
2018-09-10T00:45:08.868Z,2.98
2018-09-10T00:47:35.946Z,2.00
2018-09-10T00:50:02.986Z,2.05
2018-09-10T00:52:30.044Z,1.77
2018-09-10T00:54:57.058Z,1.40
2018-09-10T00:57:24.216Z,2.12
2018-09-10T00:59:51.250Z,1.40
2018-09-10T01:02:19.522Z,2.42
2018-09-10T01:04:46.530Z,2.10
2018-09-10T01:07:13.609Z,2.15
2018-09-10T01:09:40.622Z,2.40
2018-09-10T01:12:07.637Z,2.30
2018-09-10T01:14:34.662Z,2.80
2018-09-10T01:17:01.673Z,2.47
2018-09-10T01:19:29.202Z,1.95
2018-09-10T01:21:56.230Z,1.98
2018-09-10T01:24:23.276Z,1.55
2018-09-10T01:26:50.326Z,2.37
2018-09-10T01:29:17.521Z,2.60
2018-09-10T01:31:44.556Z,1.40
2018-09-10T01:34:17.520Z,1.90
2018-09-10T01:36:44.560Z,2.92
2018-09-10T01:39:11.658Z,2.55
2018-09-10T01:41:38.665Z,2.35
2018-09-10T01:44:05.706Z,2.10
2018-09-10T01:46:32.839Z,2.22
2018-09-10T01:48:59.956Z,2.47
2018-09-10T01:51:26.989Z,1.75
2018-09-10T01:53:54.031Z,2.22
2018-09-10T01:56:21.060Z,3.02
2018-09-10T01:58:48.133Z,2.12
2018-09-10T02:01:15.156Z,2.42
2018-09-10T02:03:42.194Z,1.72
2018-09-10T02:06:09.212Z,2.12
2018-09-10T02:08:36.314Z,2.83
2018-09-10T02:11:03.322Z,2.42
2018-09-10T02:13:30.359Z,1.87
2018-09-10T02:15:57.403Z,2.40
2018-09-10T02:18:24.501Z,1.90
2018-09-10T02:20:51.810Z,1.85
2018-09-10T02:23:19.447Z,2.15
2018-09-10T02:25:46.451Z,2.42
2018-09-10T02:28:13.499Z,2.22
2018-09-10T02:30:40.540Z,3.40
2018-09-10T02:33:08.070Z,2.27
2018-09-10T02:35:35.193Z,2.72
2018-09-10T02:38:02.528Z,2.00
2018-09-10T02:40:29.571Z,1.77
2018-09-10T02:42:56.604Z,2.47
2018-09-10T02:45:23.616Z,2.45
2018-09-10T02:47:50.689Z,1.95
2018-09-10T02:50:17.830Z,2.70
2018-09-10T02:52:44.923Z,3.08
2018-09-10T02:55:11.944Z,1.72
2018-09-10T02:57:39.051Z,3.25
2018-09-10T03:00:06.879Z,2.58
2018-09-10T03:02:33.890Z,2.00
2018-09-10T03:05:00.928Z,2.55
2018-09-10T03:07:28.123Z,2.30
2018-09-10T03:09:55.123Z,2.05
2018-09-10T03:12:22.129Z,2.30
2018-09-10T03:14:49.160Z,2.27
2018-09-10T03:17:16.303Z,2.77
2018-09-10T03:19:43.307Z,1.25
2018-09-10T03:22:10.499Z,2.70
2018-09-10T03:24:37.503Z,2.05
2018-09-10T03:27:04.696Z,2.65
2018-09-10T03:29:31.718Z,3.20
2018-09-10T03:31:58.772Z,2.85
2018-09-10T03:34:25.812Z,2.17
2018-09-10T03:36:52.914Z,1.50
2018-09-10T03:39:19.990Z,2.45
2018-09-10T03:41:47.002Z,2.83
2018-09-10T03:44:14.044Z,2.05
2018-09-10T03:46:41.128Z,3.60
2018-09-10T03:49:08.197Z,2.72
2018-09-10T03:51:35.721Z,3.05
2018-09-10T03:54:02.839Z,2.77
2018-09-10T03:56:29.972Z,2.20
2018-09-10T03:58:57.088Z,2.17
2018-09-10T04:01:24.446Z,2.25
2018-09-10T04:03:52.157Z,2.70
2018-09-10T04:06:19.222Z,2.70
2018-09-10T04:08:46.322Z,2.05
2018-09-10T04:11:13.353Z,2.42
2018-09-10T04:13:40.384Z,2.80
2018-09-10T04:16:07.416Z,2.22
2018-09-10T04:18:34.482Z,1.65
2018-09-10T04:21:01.519Z,1.87
2018-09-10T04:23:28.598Z,1.75
2018-09-10T04:25:55.659Z,2.47
2018-09-10T04:28:22.775Z,2.45
2018-09-10T04:30:49.813Z,3.10
2018-09-10T04:33:16.824Z,2.45
2018-09-10T04:35:43.838Z,2.12
2018-09-10T04:38:10.979Z,2.87
2018-09-10T04:40:37.992Z,3.70
2018-09-10T04:43:05.040Z,2.77
2018-09-10T04:45:32.050Z,1.90
2018-09-10T04:47:59.126Z,2.65
2018-09-10T04:50:26.152Z,2.90
2018-09-10T04:52:53.183Z,2.65
2018-09-10T04:55:20.216Z,3.30
2018-09-10T04:57:47.319Z,2.30
2018-09-10T05:00:14.330Z,2.72
2018-09-10T05:02:43.033Z,1.87
2018-09-10T05:05:10.128Z,2.42
2018-09-10T05:07:37.372Z,2.70
2018-09-10T05:10:05.077Z,1.50
2018-09-10T05:12:32.029Z,2.35
2018-09-10T05:14:59.228Z,2.45
2018-09-10T05:17:26.334Z,2.17
2018-09-10T05:19:53.378Z,1.60
2018-09-10T05:22:20.411Z,2.10
2018-09-10T05:24:47.451Z,1.75
2018-09-10T05:27:14.582Z,1.75
2018-09-10T05:29:41.711Z,2.45
2018-09-10T05:32:08.735Z,2.08
2018-09-10T05:34:35.753Z,2.72
2018-09-10T05:37:02.907Z,2.75
2018-09-10T05:39:29.977Z,1.90
2018-09-10T05:41:58.600Z,2.50
2018-09-10T05:44:25.642Z,1.77
2018-09-10T05:46:52.745Z,1.80
2018-09-10T05:49:19.975Z,2.87
2018-09-10T05:51:47.051Z,1.80
2018-09-10T05:54:14.221Z,1.95
2018-09-10T05:56:41.249Z,2.52
2018-09-10T05:59:08.424Z,2.35
2018-09-10T06:01:35.533Z,2.25
2018-09-10T06:04:02.566Z,2.15
2018-09-10T06:06:29.597Z,2.12
2018-09-10T06:08:56.729Z,2.20
2018-09-10T06:11:23.752Z,2.08
2018-09-10T06:13:51.713Z,2.55
2018-09-10T06:16:18.806Z,3.77
2018-09-10T06:18:45.878Z,2.40
2018-09-10T06:21:12.953Z,2.40
2018-09-10T06:23:40.102Z,1.65
2018-09-10T06:26:07.247Z,1.85
2018-09-10T06:28:34.393Z,2.00
2018-09-10T06:31:01.449Z,2.15
2018-09-10T06:33:28.440Z,1.27
2018-09-10T06:35:55.476Z,2.20
2018-09-10T06:38:22.548Z,1.65
2018-09-10T06:40:49.581Z,2.08
2018-09-10T06:43:16.916Z,1.72
2018-09-10T06:45:43.928Z,1.77
2018-09-10T06:48:11.052Z,1.50
2018-09-10T06:50:38.237Z,2.25
2018-09-10T06:53:05.388Z,1.72
2018-09-10T06:55:32.751Z,2.27
2018-09-10T06:57:59.879Z,2.17
2018-09-10T07:00:26.915Z,2.58
2018-09-10T07:02:53.979Z,2.65
2018-09-10T07:05:21.030Z,2.70
2018-09-10T07:07:48.110Z,2.67
2018-09-10T07:10:15.312Z,2.37
2018-09-10T07:12:42.486Z,2.37
2018-09-10T07:15:09.356Z,3.65
2018-09-10T07:17:36.458Z,1.90
2018-09-10T07:20:04.271Z,1.52
2018-09-10T07:22:31.304Z,1.82
2018-09-10T07:24:58.405Z,1.75
2018-09-10T07:27:25.530Z,2.08
2018-09-10T07:29:52.590Z,2.00
2018-09-10T07:32:19.624Z,1.80
2018-09-10T07:34:46.660Z,2.15
2018-09-10T07:37:13.697Z,2.45
2018-09-10T07:39:40.710Z,2.40
2018-09-10T07:42:07.753Z,2.05
2018-09-10T07:44:34.796Z,2.62
2018-09-10T07:47:01.886Z,1.45
2018-09-10T07:49:28.941Z,1.65
2018-09-10T07:51:55.998Z,2.15
2018-09-10T07:54:23.054Z,1.45
2018-09-10T07:56:50.097Z,1.80
2018-09-10T07:59:17.200Z,1.25
2018-09-10T08:01:44.503Z,1.60
2018-09-10T08:04:11.582Z,2.62
2018-09-10T08:06:38.608Z,2.77
2018-09-10T08:09:06.471Z,1.77
2018-09-10T08:11:33.544Z,3.33
2018-09-10T08:14:02.266Z,2.00
2018-09-10T08:16:29.307Z,2.42
2018-09-10T08:18:57.388Z,1.62
2018-09-10T08:21:24.416Z,1.87
2018-09-10T08:23:51.446Z,1.45
2018-09-10T08:26:18.551Z,2.20
2018-09-10T08:28:45.686Z,1.87
2018-09-10T08:31:12.809Z,1.72
2018-09-10T08:33:39.889Z,2.55
2018-09-10T08:36:06.925Z,2.08
2018-09-10T08:38:34.070Z,2.25
2018-09-10T08:41:01.889Z,1.50
2018-09-10T08:43:29.173Z,2.22
2018-09-10T08:45:56.287Z,1.98
2018-09-10T08:48:23.579Z,1.52
2018-09-10T08:50:50.573Z,2.00
2018-09-10T08:53:17.710Z,1.60
2018-09-10T08:55:45.890Z,2.12
2018-09-10T08:58:12.774Z,1.77
2018-09-10T09:00:39.813Z,1.67
2018-09-10T09:03:06.864Z,1.67
2018-09-10T09:05:33.919Z,1.77
2018-09-10T09:08:01.082Z,2.00
2018-09-10T09:10:28.095Z,2.50
2018-09-10T09:12:55.102Z,1.87
2018-09-10T09:15:22.113Z,1.70
2018-09-10T09:17:49.192Z,2.40
2018-09-10T09:20:16.210Z,2.70
2018-09-10T09:22:43.254Z,2.00
2018-09-10T09:25:10.294Z,1.55
2018-09-10T09:27:37.344Z,1.40
2018-09-10T09:30:04.780Z,1.35
2018-09-10T09:32:31.739Z,2.75
2018-09-10T09:34:59.473Z,3.25
2018-09-10T09:37:32.267Z,1.77
2018-09-10T09:40:04.778Z,1.70
2018-09-10T09:42:37.234Z,1.62
2018-09-10T09:45:09.816Z,1.25
2018-09-10T09:47:36.979Z,1.55
2018-09-10T09:50:04.017Z,2.20
2018-09-10T09:52:31.188Z,3.12
2018-09-10T09:54:58.663Z,1.42
2018-09-10T09:57:25.733Z,2.27
2018-09-10T09:59:52.769Z,1.77
2018-09-10T10:02:20.050Z,1.12
2018-09-10T10:04:47.173Z,1.82
2018-09-10T10:07:14.252Z,1.42
2018-09-10T10:09:41.272Z,1.90
2018-09-10T10:12:08.308Z,1.50
2018-09-10T10:14:35.314Z,2.50
2018-09-10T10:17:02.415Z,1.55
2018-09-10T10:19:29.446Z,1.62
2018-09-10T10:21:56.549Z,1.77
2018-09-10T10:24:23.575Z,1.50
2018-09-10T10:26:51.151Z,1.20
2018-09-10T10:29:18.259Z,2.10
2018-09-10T10:31:45.292Z,2.10
2018-09-10T10:34:12.303Z,2.02
2018-09-10T10:36:39.318Z,1.80
2018-09-10T10:39:07.356Z,2.33
2018-09-10T10:41:34.326Z,1.52
2018-09-10T10:44:01.369Z,1.90
2018-09-10T10:46:28.424Z,3.35
2018-09-10T10:48:56.076Z,1.65
2018-09-10T10:51:23.134Z,1.30
2018-09-10T10:53:50.283Z,2.62
2018-09-10T10:56:17.183Z,1.20
2018-09-10T10:58:44.289Z,1.20
2018-09-10T11:01:11.603Z,2.15
2018-09-10T11:03:38.733Z,1.55
2018-09-10T11:06:05.788Z,1.25
2018-09-10T11:08:32.837Z,1.20
2018-09-10T11:10:59.874Z,1.90
2018-09-10T11:13:26.920Z,1.50
2018-09-10T11:15:53.951Z,2.12
2018-09-10T11:18:21.014Z,2.17
2018-09-10T11:20:48.032Z,2.42
2018-09-10T11:23:15.062Z,1.60
2018-09-10T11:25:42.121Z,1.90
2018-09-10T11:28:09.244Z,1.77
2018-09-10T11:30:36.273Z,1.37
2018-09-10T11:33:03.344Z,1.20
2018-09-10T11:35:30.389Z,1.70
2018-09-10T11:37:58.338Z,1.37
2018-09-10T11:40:25.378Z,4.00
2018-09-10T11:42:52.407Z,1.90
2018-09-10T11:45:19.472Z,1.67
2018-09-10T11:47:46.612Z,1.30
2018-09-10T11:50:13.707Z,2.02
2018-09-10T11:52:40.756Z,1.05
2018-09-10T11:55:07.778Z,2.40
2018-09-10T11:57:34.911Z,1.15
2018-09-10T12:00:01.923Z,1.55
2018-09-10T12:02:28.972Z,2.20
2018-09-10T12:04:56.008Z,1.67
2018-09-10T12:07:23.073Z,1.45
2018-09-10T12:09:50.095Z,1.90
2018-09-10T12:12:17.236Z,2.15
2018-09-10T12:14:44.254Z,1.75
2018-09-10T12:17:12.111Z,1.55
2018-09-10T12:19:39.139Z,1.32
2018-09-10T12:22:06.189Z,1.17
2018-09-10T12:24:33.228Z,1.05
2018-09-10T12:27:00.314Z,0.95
2018-09-10T12:29:27.368Z,1.65
2018-09-10T12:31:54.366Z,1.32
2018-09-10T12:34:21.405Z,2.83
2018-09-10T12:36:48.437Z,1.77
2018-09-10T12:39:15.507Z,1.90
2018-09-10T12:41:42.518Z,2.35
2018-09-10T12:44:09.559Z,1.65
2018-09-10T12:46:37.003Z,2.30
2018-09-10T12:49:04.010Z,1.80
2018-09-10T12:51:31.139Z,1.85
2018-09-10T12:53:58.689Z,1.98
2018-09-10T12:56:25.803Z,1.80
2018-09-10T12:58:52.921Z,2.40
2018-09-10T13:01:19.927Z,1.25
2018-09-10T13:03:46.964Z,1.57
2018-09-10T13:06:13.995Z,2.02
2018-09-10T13:08:41.083Z,1.62
2018-09-10T13:11:08.103Z,3.50
2018-09-10T13:13:35.166Z,1.47
2018-09-10T13:16:02.190Z,1.80
2018-09-10T13:18:29.305Z,3.05
2018-09-10T13:20:56.361Z,2.10
2018-09-10T13:23:23.694Z,1.32
2018-09-10T13:25:50.743Z,1.32
2018-09-10T13:28:17.962Z,1.75
2018-09-10T13:30:44.997Z,1.50
2018-09-10T13:33:12.082Z,1.52
2018-09-10T13:35:39.099Z,2.00
2018-09-10T13:38:06.126Z,1.92
2018-09-10T13:40:33.166Z,1.57
2018-09-10T13:43:00.560Z,1.55
2018-09-10T13:45:27.576Z,1.02
2018-09-10T13:47:54.664Z,1.10
2018-09-10T13:50:21.702Z,1.40
2018-09-10T13:52:48.740Z,1.70
2018-09-10T13:55:15.786Z,1.30
2018-09-10T13:57:42.940Z,1.67
2018-09-10T14:00:09.962Z,1.37
2018-09-10T14:02:37.312Z,2.40
2018-09-10T14:05:04.584Z,1.30
2018-09-10T14:07:31.716Z,1.75
2018-09-10T14:09:59.332Z,2.72
2018-09-10T14:12:26.389Z,1.45
2018-09-10T14:14:53.424Z,1.20
2018-09-10T14:17:20.519Z,1.50
2018-09-10T14:19:47.536Z,1.30
2018-09-10T14:22:14.651Z,1.22
2018-09-10T14:24:41.658Z,1.60
2018-09-10T14:27:08.752Z,1.32
2018-09-10T14:29:35.735Z,1.50
2018-09-10T14:32:02.760Z,1.57
2018-09-10T14:34:30.642Z,1.65
2018-09-10T14:36:57.603Z,1.52
2018-09-10T14:39:24.620Z,2.40
2018-09-10T14:41:51.692Z,1.15
2018-09-10T14:44:18.775Z,1.30
2018-09-10T14:46:46.219Z,3.42
2018-09-10T14:49:13.333Z,1.02
2018-09-10T14:51:40.354Z,1.40
2018-09-10T14:54:07.493Z,0.90
2018-09-10T14:56:34.596Z,1.52
2018-09-10T14:59:01.793Z,1.87
2018-09-10T15:01:28.825Z,1.60
2018-09-10T15:03:55.860Z,1.62
2018-09-10T15:06:22.989Z,2.15
2018-09-10T15:08:50.128Z,1.35
2018-09-10T15:11:17.177Z,2.47
2018-09-10T15:13:44.320Z,1.42
2018-09-10T15:16:11.335Z,1.62
2018-09-10T15:18:38.514Z,1.65
2018-09-10T15:21:05.881Z,1.40
2018-09-10T15:23:32.897Z,2.20
2018-09-10T15:25:59.984Z,2.37
2018-09-10T15:28:27.009Z,2.42
2018-09-10T15:30:54.049Z,1.40
2018-09-10T15:33:21.137Z,1.22
2018-09-10T15:35:48.282Z,1.10
2018-09-10T15:38:15.460Z,1.12
2018-09-10T15:40:42.670Z,1.72
2018-09-10T15:43:09.692Z,1.67
2018-09-10T15:45:36.720Z,1.20
2018-09-10T15:48:03.784Z,3.45
2018-09-10T15:50:32.061Z,2.67
2018-09-10T15:52:59.105Z,1.98
2018-09-10T15:55:26.138Z,1.55
2018-09-10T15:57:53.208Z,2.12
2018-09-10T16:00:20.220Z,1.35
2018-09-10T16:02:47.263Z,1.55
2018-09-10T16:05:14.299Z,1.98
2018-09-10T16:07:41.368Z,1.70
2018-09-10T16:10:08.417Z,1.50
2018-09-10T16:12:35.438Z,2.02
2018-09-10T16:15:02.763Z,1.67
2018-09-10T16:17:29.920Z,1.72
2018-09-10T16:19:57.344Z,1.52
2018-09-10T16:22:24.350Z,1.37
2018-09-10T16:24:51.396Z,1.27
2018-09-10T16:27:18.583Z,2.17
2018-09-10T16:29:46.065Z,1.45
2018-09-10T16:32:13.331Z,2.10
2018-09-10T16:34:40.362Z,1.95
2018-09-10T16:37:07.481Z,2.33
2018-09-10T16:39:35.053Z,2.62
2018-09-10T16:42:02.255Z,4.12
2018-09-10T16:44:29.274Z,3.08
2018-09-10T16:46:56.384Z,3.50
2018-09-10T16:49:23.402Z,5.75
2018-09-10T16:51:50.452Z,6.00
2018-09-10T16:54:17.703Z,7.55
2018-09-10T16:56:44.569Z,5.60
2018-09-10T16:59:11.713Z,5.20
2018-09-10T17:01:39.194Z,6.60
2018-09-10T17:04:06.342Z,4.95
2018-09-10T17:06:33.436Z,4.42
2018-09-10T17:09:00.503Z,6.35
2018-09-10T17:11:27.656Z,4.97
2018-09-10T17:13:54.766Z,6.20
2018-09-10T17:16:21.808Z,5.95
2018-09-10T17:18:48.950Z,4.65
2018-09-10T17:21:16.017Z,5.95
2018-09-10T17:23:43.044Z,4.15
2018-09-10T17:26:10.147Z,5.03
2018-09-10T17:28:37.316Z,3.75
2018-09-10T17:31:04.344Z,3.25
2018-09-10T17:33:31.800Z,3.33
2018-09-10T17:35:58.842Z,4.50
2018-09-10T17:38:26.371Z,6.85
2018-09-10T17:40:53.440Z,3.37
2018-09-10T17:43:20.471Z,3.80
2018-09-10T17:45:47.529Z,4.03
2018-09-10T17:48:14.673Z,3.85
2018-09-10T17:50:41.733Z,4.80
2018-09-10T17:53:08.785Z,3.10
2018-09-10T17:55:35.845Z,2.80
2018-09-10T17:58:02.972Z,3.20
2018-09-10T18:00:30.676Z,3.33
2018-09-10T18:02:57.782Z,3.77
2018-09-10T18:05:24.848Z,3.80
2018-09-10T18:07:51.976Z,2.37
2018-09-10T18:10:19.144Z,3.85
2018-09-10T18:12:46.169Z,3.30
2018-09-10T18:15:13.232Z,2.40
2018-09-10T18:17:40.338Z,3.40
2018-09-10T18:20:07.610Z,2.37
2018-09-10T18:22:34.835Z,3.45
2018-09-10T18:25:01.999Z,3.17
2018-09-10T18:27:28.949Z,3.77
2018-09-10T18:29:55.988Z,2.77
2018-09-10T18:32:23.022Z,3.37
2018-09-10T18:34:50.076Z,3.02
2018-09-10T18:37:17.728Z,2.35
2018-09-10T18:39:44.782Z,3.10
2018-09-10T18:42:11.824Z,2.58
2018-09-10T18:44:38.846Z,3.10
2018-09-10T18:47:05.972Z,3.37
2018-09-10T18:49:33.032Z,3.33
2018-09-10T18:52:00.512Z,2.45
2018-09-10T18:54:27.535Z,2.95
2018-09-10T18:56:54.572Z,3.33
2018-09-10T18:59:21.672Z,2.02
2018-09-10T19:01:48.682Z,3.33
2018-09-10T19:04:15.773Z,3.27
2018-09-10T19:06:42.899Z,2.33
2018-09-10T19:09:11.187Z,1.85
2018-09-10T19:11:38.243Z,2.50
2018-09-10T19:14:05.350Z,2.17
2018-09-10T19:16:32.428Z,2.10
2018-09-10T19:19:00.489Z,4.28
2018-09-10T19:21:27.514Z,2.65
2018-09-10T19:23:54.546Z,3.33
2018-09-10T19:26:21.604Z,3.45
2018-09-10T19:28:48.683Z,1.72
2018-09-10T19:31:15.695Z,2.15
2018-09-10T19:33:42.759Z,2.10
2018-09-10T19:36:09.832Z,2.08
2018-09-10T19:38:36.972Z,2.27
2018-09-10T19:41:03.998Z,2.10
2018-09-10T19:43:31.636Z,2.42
2018-09-10T19:45:59.318Z,1.82
2018-09-10T19:48:27.645Z,1.82
2018-09-10T19:50:54.751Z,1.90
2018-09-10T19:53:21.792Z,2.20
2018-09-10T19:55:48.881Z,2.22
2018-09-10T19:58:16.067Z,3.50
2018-09-10T20:00:43.126Z,2.25
2018-09-10T20:03:10.161Z,2.08
2018-09-10T20:05:37.196Z,3.10
2018-09-10T20:08:04.288Z,2.10
2018-09-10T20:10:31.313Z,2.15
2018-09-10T20:12:58.401Z,2.22
2018-09-10T20:15:25.625Z,2.42
2018-09-10T20:17:52.762Z,2.75
2018-09-10T20:20:19.806Z,1.92
2018-09-10T20:22:46.902Z,2.30
2018-09-10T20:25:14.117Z,2.42
2018-09-10T20:27:41.170Z,2.10
2018-09-10T20:30:08.232Z,1.17
2018-09-10T20:32:35.357Z,3.30
2018-09-10T20:35:02.382Z,1.98
2018-09-10T20:37:29.581Z,1.85
2018-09-10T20:39:56.598Z,2.75
2018-09-10T20:42:23.626Z,3.90
2018-09-10T20:44:50.682Z,1.72
2018-09-10T20:47:17.782Z,1.77
2018-09-10T20:49:44.833Z,4.03
2018-09-10T20:52:11.983Z,1.90
2018-09-10T20:54:38.967Z,2.52
2018-09-10T20:57:06.015Z,2.60
2018-09-10T20:59:33.056Z,2.20
2018-09-10T21:02:00.080Z,1.90
2018-09-10T21:04:27.158Z,1.80
2018-09-10T21:06:54.193Z,2.27
2018-09-10T21:09:21.848Z,2.12
2018-09-10T21:11:48.879Z,1.52
2018-09-10T21:14:15.994Z,1.90
2018-09-10T21:16:43.147Z,2.50
2018-09-10T21:19:10.252Z,2.90
2018-09-10T21:21:37.276Z,1.82
2018-09-10T21:24:04.320Z,2.42
2018-09-10T21:26:31.336Z,2.92
2018-09-10T21:28:59.037Z,2.75
2018-09-10T21:31:26.062Z,2.58
2018-09-10T21:33:53.080Z,1.87
2018-09-10T21:36:20.220Z,2.30
2018-09-10T21:38:47.318Z,2.27
2018-09-10T21:41:14.361Z,3.65
2018-09-10T21:43:41.469Z,2.15
2018-09-10T21:46:08.472Z,1.30
2018-09-10T21:48:35.548Z,2.08
2018-09-10T21:51:02.572Z,2.22
2018-09-10T21:53:29.699Z,2.33
2018-09-10T21:55:56.699Z,2.20
2018-09-10T21:58:23.808Z,2.35
2018-09-10T22:00:55.090Z,2.08
2018-09-10T22:03:22.137Z,2.05
2018-09-10T22:05:49.181Z,2.10
2018-09-10T22:08:16.834Z,2.20
2018-09-10T22:10:44.132Z,2.50
2018-09-10T22:13:11.597Z,1.50
2018-09-10T22:15:38.917Z,1.82
2018-09-10T22:18:06.016Z,1.65
2018-09-10T22:20:33.077Z,2.17
2018-09-10T22:23:00.196Z,2.50
2018-09-10T22:25:28.011Z,2.00
2018-09-10T22:27:55.238Z,2.40
2018-09-10T22:30:22.272Z,2.25
2018-09-10T22:32:49.289Z,1.95
2018-09-10T22:35:16.975Z,2.05
2018-09-10T22:37:44.026Z,1.82
2018-09-10T22:40:11.043Z,2.90
2018-09-10T22:42:38.084Z,1.70
2018-09-10T22:45:05.796Z,3.12
2018-09-10T22:47:32.914Z,1.87
2018-09-10T22:49:59.939Z,1.67
2018-09-10T22:52:26.974Z,2.50
2018-09-10T22:54:54.831Z,2.65
2018-09-10T22:57:21.911Z,2.30
2018-09-10T22:59:48.942Z,1.75
2018-09-10T23:02:15.967Z,2.52
2018-09-10T23:04:42.979Z,1.87
2018-09-10T23:07:10.095Z,1.90
2018-09-10T23:09:37.131Z,3.33
2018-09-10T23:12:04.141Z,2.47
2018-09-10T23:14:31.179Z,2.50
2018-09-10T23:16:58.389Z,2.65
2018-09-10T23:19:25.428Z,2.00
2018-09-10T23:21:52.453Z,1.87
2018-09-10T23:24:19.498Z,2.77
2018-09-10T23:26:46.542Z,2.35
2018-09-10T23:29:13.646Z,2.30
2018-09-10T23:31:40.675Z,2.15
2018-09-10T23:34:07.716Z,2.35
2018-09-10T23:36:34.727Z,1.52
2018-09-10T23:39:01.819Z,2.05
2018-09-10T23:41:28.830Z,1.65
2018-09-10T23:43:55.870Z,1.12
2018-09-10T23:46:22.899Z,2.40
2018-09-10T23:48:50.023Z,1.40
2018-09-10T23:51:17.183Z,2.25
2018-09-10T23:53:44.192Z,2.55
2018-09-10T23:56:11.210Z,1.90
2018-09-10T23:58:38.266Z,1.92
